Time;durP1;ratioP1;P1;durP2;ratioP2;P2;SDS_P1;SDS_P2;PMS_P1;PMS_P2;Temp;Humidity;BMP_temperature;BMP_pressure;BME280_temperature;BME280_humidity;BME280_pressure;Samples;Min_cycle;Max_cycle;Signal;HPM_P1;HPM_P2
2021/11/21 00:02:12;;;;;;;4.93;3.80;;;10.00;99.90;;;;;;5024490;28;20542;-51
2021/11/21 00:04:39;;;;;;;5.18;3.72;;;10.00;99.90;;;;;;5024240;28;20501;-49
2021/11/21 00:07:06;;;;;;;7.22;4.10;;;9.90;99.90;;;;;;5024369;28;20580;-52
2021/11/21 00:09:33;;;;;;;4.78;3.50;;;9.90;99.90;;;;;;5024216;28;20140;-51
2021/11/21 00:11:59;;;;;;;4.80;3.63;;;9.90;99.90;;;;;;5023773;28;20215;-49
2021/11/21 00:14:27;;;;;;;4.40;3.40;;;9.90;99.90;;;;;;5023149;28;20055;-50
2021/11/21 00:16:57;;;;;;;5.10;3.80;;;9.90;99.90;;;;;;5024190;28;20175;-52
2021/11/21 00:19:24;;;;;;;5.13;3.63;;;9.90;99.90;;;;;;5023601;28;20073;-51
2021/11/21 00:21:50;;;;;;;4.05;3.13;;;10.00;99.90;;;;;;5024433;28;20108;-51
2021/11/21 00:24:17;;;;;;;4.63;3.25;;;9.90;99.90;;;;;;5023808;28;20573;-51
2021/11/21 00:26:44;;;;;;;4.65;3.33;;;9.90;99.90;;;;;;5023416;28;20175;-47
2021/11/21 00:29:10;;;;;;;4.57;3.35;;;9.90;99.90;;;;;;5022599;28;20140;-48
2021/11/21 00:31:37;;;;;;;3.03;2.72;;;9.90;99.90;;;;;;5023545;28;20080;-50
2021/11/21 00:34:04;;;;;;;4.70;3.42;;;9.90;99.90;;;;;;5020733;28;20065;-51
2021/11/21 00:36:31;;;;;;;5.47;3.80;;;9.90;99.90;;;;;;5022290;28;20156;-48
2021/11/21 00:38:58;;;;;;;5.72;3.33;;;9.90;99.90;;;;;;5023559;28;20536;-48
2021/11/21 00:41:24;;;;;;;4.68;3.63;;;9.90;99.90;;;;;;5023215;28;20276;-50
2021/11/21 00:43:51;;;;;;;4.00;2.92;;;9.80;99.90;;;;;;5022874;28;20096;-53
2021/11/21 00:46:18;;;;;;;4.88;3.53;;;9.90;99.90;;;;;;5022296;28;20140;-51
2021/11/21 00:48:45;;;;;;;6.07;3.72;;;9.80;99.90;;;;;;5023945;28;20458;-50
2021/11/21 00:51:12;;;;;;;4.63;3.45;;;9.80;99.90;;;;;;5023222;28;20084;-51
2021/11/21 00:53:42;;;;;;;5.43;3.90;;;9.80;99.90;;;;;;5023421;28;20081;-48
2021/11/21 00:56:09;;;;;;;6.35;4.05;;;9.80;99.90;;;;;;5022833;28;20650;-52
2021/11/21 00:58:37;;;;;;;4.10;3.38;;;9.80;99.90;;;;;;5023188;28;20136;-52
2021/11/21 01:01:07;;;;;;;5.30;3.35;;;9.80;99.90;;;;;;5021331;28;20132;-52
2021/11/21 01:03:34;;;;;;;4.45;3.10;;;9.80;99.90;;;;;;5023300;28;20377;-52
2021/11/21 01:06:01;;;;;;;4.28;3.03;;;9.80;99.90;;;;;;5020661;28;20132;-50
2021/11/21 01:08:28;;;;;;;4.38;3.15;;;9.70;99.90;;;;;;5022991;28;20088;-52
2021/11/21 01:10:58;;;;;;;4.15;3.05;;;9.70;99.90;;;;;;5023405;28;20133;-51
2021/11/21 01:13:25;;;;;;;3.88;2.85;;;9.80;99.90;;;;;;5025880;28;20155;-52
2021/11/21 01:15:51;;;;;;;3.92;2.78;;;9.80;99.90;;;;;;5024950;28;20093;-51
2021/11/21 01:18:18;;;;;;;3.83;2.75;;;9.80;99.90;;;;;;5024526;28;20096;-52
2021/11/21 01:20:45;;;;;;;4.00;3.20;;;9.80;99.90;;;;;;5025539;28;20049;-54
2021/11/21 01:23:13;;;;;;;4.00;2.97;;;9.80;99.90;;;;;;5026290;28;20193;-51
2021/11/21 01:25:40;;;;;;;4.45;2.97;;;9.80;99.90;;;;;;5026261;28;20472;-49
2021/11/21 01:28:07;;;;;;;3.90;3.05;;;9.80;99.90;;;;;;5024380;28;20172;-51
2021/11/21 01:30:34;;;;;;;3.25;2.58;;;9.80;99.90;;;;;;5024095;28;20133;-51
2021/11/21 01:33:01;;;;;;;3.47;2.75;;;9.80;99.90;;;;;;5022689;28;20132;-51
2021/11/21 01:35:28;;;;;;;3.45;2.65;;;9.80;99.90;;;;;;5022695;28;20045;-51
2021/11/21 01:37:55;;;;;;;4.78;3.33;;;9.80;99.90;;;;;;5024672;28;20049;-53
2021/11/21 01:40:22;;;;;;;3.53;3.00;;;9.80;99.90;;;;;;5025553;28;20136;-51
2021/11/21 01:42:49;;;;;;;3.70;2.38;;;9.70;99.90;;;;;;5024583;28;20061;-52
2021/11/21 01:45:16;;;;;;;4.32;2.83;;;9.70;99.90;;;;;;5023878;28;20156;-53
2021/11/21 01:47:43;;;;;;;6.30;2.70;;;9.60;99.90;;;;;;5023802;28;20088;-52
2021/11/21 01:50:13;;;;;;;3.50;2.97;;;9.70;99.90;;;;;;5026101;28;20175;-47
2021/11/21 01:52:40;;;;;;;3.03;2.47;;;9.70;99.90;;;;;;5008308;28;20085;-52
2021/11/21 01:55:07;;;;;;;3.38;2.97;;;9.70;99.90;;;;;;5025708;28;20100;-53
2021/11/21 01:57:34;;;;;;;4.80;2.95;;;9.70;99.90;;;;;;5024439;28;20461;-53
2021/11/21 02:00:02;;;;;;;4.90;3.15;;;9.70;99.90;;;;;;5022945;28;20136;-49
2021/11/21 02:02:29;;;;;;;4.45;2.78;;;9.70;99.90;;;;;;5025491;28;20483;-49
2021/11/21 02:04:56;;;;;;;4.22;2.63;;;9.70;99.90;;;;;;5022828;28;20176;-50
2021/11/21 02:07:23;;;;;;;3.47;2.25;;;9.70;99.90;;;;;;5024551;28;20144;-47
2021/11/21 02:09:49;;;;;;;3.30;1.85;;;9.70;99.90;;;;;;5023102;28;20085;-51
2021/11/21 02:12:16;;;;;;;3.80;2.42;;;9.80;99.90;;;;;;5020507;28;20163;-50
2021/11/21 02:14:43;;;;;;;4.03;2.65;;;9.80;99.90;;;;;;5020795;28;20331;-53
2021/11/21 02:17:10;;;;;;;6.60;2.55;;;9.80;99.90;;;;;;5019714;28;20107;-52
2021/11/21 02:19:37;;;;;;;2.63;1.90;;;9.80;99.90;;;;;;5021299;28;20132;-52
2021/11/21 02:22:03;;;;;;;3.13;2.17;;;9.80;99.90;;;;;;5021885;28;20053;-50
2021/11/21 02:24:31;;;;;;;3.83;2.10;;;9.80;99.90;;;;;;5018315;28;20353;-50
2021/11/21 02:26:58;;;;;;;4.70;2.00;;;9.90;99.90;;;;;;5020252;28;20053;-50
2021/11/21 02:29:26;;;;;;;4.15;2.00;;;9.80;99.80;;;;;;5019286;28;20132;-52
2021/11/21 02:31:52;;;;;;;5.18;1.90;;;9.80;99.90;;;;;;5022125;28;20492;-51
2021/11/21 02:34:19;;;;;;;5.43;1.80;;;9.80;99.60;;;;;;5026277;28;20049;-50
2021/11/21 02:36:46;;;;;;;4.70;1.80;;;9.80;99.90;;;;;;5026415;28;20132;-50
2021/11/21 02:39:13;;;;;;;4.80;1.67;;;9.80;99.70;;;;;;5024746;28;20045;-47
2021/11/21 02:41:40;;;;;;;3.03;1.40;;;9.80;99.70;;;;;;5024769;28;20081;-47
2021/11/21 02:44:07;;;;;;;3.22;1.88;;;9.80;99.60;;;;;;5023651;28;20104;-49
2021/11/21 02:46:36;;;;;;;4.47;1.83;;;9.80;99.60;;;;;;5018524;28;20182;-53
2021/11/21 02:49:03;;;;;;;3.53;1.83;;;9.80;99.50;;;;;;5024054;28;20166;-53
2021/11/21 02:51:30;;;;;;;3.75;1.67;;;9.70;99.40;;;;;;5023878;28;20136;-51
2021/11/21 02:53:57;;;;;;;3.50;1.58;;;9.70;99.50;;;;;;5024997;28;20157;-54
2021/11/21 02:56:24;;;;;;;3.95;1.50;;;9.70;99.50;;;;;;5022382;28;20136;-51
2021/11/21 02:58:50;;;;;;;2.65;1.27;;;9.70;99.70;;;;;;5023898;28;20728;-52
2021/11/21 03:01:20;;;;;;;4.25;1.58;;;9.70;99.70;;;;;;5023290;28;20092;-53
2021/11/21 03:03:47;;;;;;;4.60;1.55;;;9.60;99.80;;;;;;5024054;28;20045;-53
2021/11/21 03:06:14;;;;;;;6.78;1.48;;;9.50;99.60;;;;;;5022304;28;20129;-53
2021/11/21 03:08:41;;;;;;;4.60;1.55;;;9.50;99.70;;;;;;5023717;28;20128;-54
2021/11/21 03:11:31;;;;;;;3.72;1.42;;;9.50;99.80;;;;;;5023239;28;20049;-53
2021/11/21 03:13:59;;;;;;;3.10;1.25;;;9.40;99.90;;;;;;5022523;28;20073;-53
2021/11/21 03:16:26;;;;;;;5.78;1.98;;;9.40;99.80;;;;;;5021934;28;20552;-53
2021/11/21 03:18:53;;;;;;;2.90;1.42;;;9.40;99.80;;;;;;5023855;28;20076;-51
2021/11/21 03:21:20;;;;;;;2.20;1.25;;;9.30;99.90;;;;;;5018868;28;20514;-50
2021/11/21 03:23:47;;;;;;;4.03;1.17;;;9.30;99.90;;;;;;5023652;28;20536;-53
2021/11/21 03:26:13;;;;;;;4.82;1.58;;;9.30;99.90;;;;;;5022803;28;20115;-54
2021/11/21 03:28:40;;;;;;;4.30;1.70;;;9.20;99.90;;;;;;5026230;28;20131;-54
2021/11/21 03:31:07;;;;;;;2.88;1.73;;;9.20;99.80;;;;;;5026328;28;20099;-54
2021/11/21 03:33:34;;;;;;;4.07;1.60;;;9.20;99.70;;;;;;5028520;28;20132;-55
2021/11/21 03:36:01;;;;;;;2.25;1.05;;;9.10;99.70;;;;;;5027317;28;20081;-53
2021/11/21 03:38:27;;;;;;;3.60;1.55;;;9.10;99.80;;;;;;5027560;28;20084;-54
2021/11/21 03:40:55;;;;;;;2.13;1.00;;;9.10;99.70;;;;;;5028093;28;20077;-53
2021/11/21 03:43:21;;;;;;;2.80;1.25;;;9.00;99.70;;;;;;5028245;28;20473;-54
2021/11/21 03:45:48;;;;;;;2.67;1.10;;;9.00;99.60;;;;;;5027643;28;20128;-51
2021/11/21 03:48:15;;;;;;;3.03;1.45;;;8.90;99.80;;;;;;5028902;28;20443;-55
2021/11/21 03:50:42;;;;;;;3.53;1.30;;;8.90;99.50;;;;;;5028941;28;20077;-54
2021/11/21 03:53:08;;;;;;;4.22;1.23;;;8.80;99.60;;;;;;5016081;28;20088;-52
2021/11/21 03:55:35;;;;;;;5.80;1.27;;;8.80;99.90;;;;;;5018551;28;20477;-53
2021/11/21 03:58:02;;;;;;;2.97;1.02;;;8.80;99.80;;;;;;5028170;28;20073;-55
2021/11/21 04:00:29;;;;;;;3.92;1.40;;;8.70;99.90;;;;;;5017829;28;20077;-54
2021/11/21 04:02:56;;;;;;;4.65;1.65;;;8.70;99.90;;;;;;5026937;28;20049;-54
2021/11/21 04:05:24;;;;;;;4.00;1.50;;;8.60;99.90;;;;;;5011395;28;20060;-54
2021/11/21 04:07:51;;;;;;;8.02;1.83;;;8.50;99.90;;;;;;5027252;28;20117;-55
2021/11/21 04:10:18;;;;;;;5.80;2.05;;;8.50;99.90;;;;;;5018667;28;20082;-53
2021/11/21 04:12:45;;;;;;;4.88;1.73;;;8.40;99.90;;;;;;5026126;28;20096;-51
2021/11/21 04:15:12;;;;;;;7.10;1.80;;;8.30;99.90;;;;;;5027619;28;20052;-55
2021/11/21 04:17:39;;;;;;;6.40;2.78;;;8.30;99.90;;;;;;5026931;28;20077;-50
2021/11/21 04:20:07;;;;;;;7.55;1.67;;;8.20;99.90;;;;;;5026501;28;20090;-53
2021/11/21 04:22:33;;;;;;;4.30;1.48;;;8.20;99.90;;;;;;5028151;28;20096;-57
2021/11/21 04:25:00;;;;;;;5.50;2.00;;;8.20;99.90;;;;;;5028380;28;20138;-53
2021/11/21 04:27:27;;;;;;;3.72;1.42;;;8.10;99.90;;;;;;5027310;28;20404;-51
2021/11/21 04:29:57;;;;;;;6.03;1.95;;;8.10;99.90;;;;;;5026869;28;20038;-53
2021/11/21 04:32:24;;;;;;;5.60;1.50;;;8.10;99.90;;;;;;5027394;28;20077;-52
2021/11/21 04:34:51;;;;;;;5.53;1.85;;;8.00;99.90;;;;;;5028146;28;20100;-53
2021/11/21 04:37:18;;;;;;;4.82;1.50;;;8.00;99.90;;;;;;5026317;28;20052;-52
2021/11/21 04:39:45;;;;;;;5.20;1.35;;;8.00;99.90;;;;;;5026627;28;20132;-52
2021/11/21 04:42:11;;;;;;;4.60;1.23;;;7.90;99.90;;;;;;5027308;28;20081;-52
2021/11/21 04:44:38;;;;;;;4.55;1.88;;;7.90;99.90;;;;;;5024625;28;20080;-54
2021/11/21 04:47:05;;;;;;;4.50;1.50;;;7.90;99.90;;;;;;5027738;28;20097;-50
2021/11/21 04:49:32;;;;;;;6.32;2.10;;;7.80;99.90;;;;;;5026689;28;20461;-54
2021/11/21 04:51:58;;;;;;;8.35;2.58;;;7.70;99.90;;;;;;5027328;28;20144;-53
2021/11/21 04:54:26;;;;;;;6.30;1.30;;;7.70;99.90;;;;;;5027840;28;20100;-49
2021/11/21 04:56:53;;;;;;;5.75;1.60;;;7.70;99.90;;;;;;5027426;28;20107;-52
2021/11/21 04:59:20;;;;;;;3.83;1.48;;;7.60;99.90;;;;;;5026146;28;20554;-53
2021/11/21 05:01:47;;;;;;;6.28;1.45;;;7.60;99.90;;;;;;5026911;28;20512;-50
2021/11/21 05:04:14;;;;;;;3.80;1.45;;;7.60;99.90;;;;;;5027208;28;20053;-53
2021/11/21 05:06:41;;;;;;;2.80;1.20;;;7.50;99.90;;;;;;5027388;28;20695;-53
2021/11/21 05:09:08;;;;;;;3.83;0.93;;;7.50;99.90;;;;;;5027264;28;20140;-52
2021/11/21 05:11:35;;;;;;;5.85;2.00;;;7.40;99.90;;;;;;5026338;28;20132;-51
2021/11/21 05:14:03;;;;;;;4.95;1.60;;;7.40;99.90;;;;;;5027173;28;20084;-50
2021/11/21 05:16:29;;;;;;;3.83;1.30;;;7.40;99.90;;;;;;5024357;28;20084;-54
2021/11/21 05:18:56;;;;;;;6.18;1.42;;;7.30;99.90;;;;;;5027330;28;20053;-50
2021/11/21 05:21:23;;;;;;;4.88;1.25;;;7.30;99.90;;;;;;5026683;28;20688;-52
2021/11/21 05:23:50;;;;;;;5.38;1.60;;;7.40;99.90;;;;;;5027438;28;20542;-53
2021/11/21 05:26:17;;;;;;;4.72;1.48;;;7.30;99.90;;;;;;5025991;28;20084;-53
2021/11/21 05:28:44;;;;;;;2.70;1.20;;;7.30;99.90;;;;;;5026855;28;20053;-51
2021/11/21 05:31:10;;;;;;;5.10;1.60;;;7.30;99.90;;;;;;5025709;28;20137;-50
2021/11/21 05:33:37;;;;;;;4.65;1.00;;;7.30;99.90;;;;;;5026541;28;20046;-54
2021/11/21 05:36:04;;;;;;;6.60;1.40;;;7.20;99.90;;;;;;5026983;28;20100;-51
2021/11/21 05:38:31;;;;;;;4.72;1.15;;;7.20;99.90;;;;;;5026774;28;20049;-53
2021/11/21 05:40:57;;;;;;;4.93;1.50;;;7.20;99.90;;;;;;5026394;28;20103;-52
2021/11/21 05:43:24;;;;;;;5.05;1.20;;;7.10;99.90;;;;;;5024147;28;20084;-52
2021/11/21 05:45:51;;;;;;;4.38;1.63;;;7.10;99.90;;;;;;5025136;28;20085;-53
2021/11/21 05:48:18;;;;;;;3.67;1.40;;;7.10;99.90;;;;;;5020868;28;20052;-52
2021/11/21 05:50:44;;;;;;;5.18;1.38;;;7.00;99.90;;;;;;5004933;28;20872;-52
2021/11/21 05:53:11;;;;;;;3.47;1.40;;;7.00;99.90;;;;;;5022249;28;20091;-52
2021/11/21 05:55:38;;;;;;;6.43;2.10;;;7.00;99.90;;;;;;5024716;28;20125;-51
2021/11/21 05:58:05;;;;;;;4.50;1.42;;;7.00;99.90;;;;;;5023559;28;20113;-52
2021/11/21 06:00:31;;;;;;;5.13;1.45;;;7.00;99.90;;;;;;5022899;28;20096;-52
2021/11/21 06:02:59;;;;;;;4.43;2.20;;;7.00;99.90;;;;;;5021545;28;20124;-52
2021/11/21 06:05:26;;;;;;;4.15;1.55;;;7.00;99.90;;;;;;5021062;28;20071;-53
2021/11/21 06:07:53;;;;;;;3.80;1.25;;;6.90;99.90;;;;;;5019955;28;20133;-52
2021/11/21 06:10:19;;;;;;;3.72;1.10;;;6.90;99.90;;;;;;5021809;28;20900;-48
2021/11/21 06:12:46;;;;;;;4.22;0.93;;;6.80;99.90;;;;;;5021129;28;20140;-49
2021/11/21 06:15:13;;;;;;;5.05;1.73;;;6.80;99.90;;;;;;5020540;28;20152;-51
2021/11/21 06:17:40;;;;;;;3.40;1.23;;;6.80;99.90;;;;;;5021661;28;20107;-53
2021/11/21 06:20:07;;;;;;;3.33;1.20;;;6.70;99.90;;;;;;5021728;28;20442;-52
2021/11/21 06:22:34;;;;;;;3.63;1.55;;;6.70;99.90;;;;;;5021410;28;20132;-47
2021/11/21 06:25:01;;;;;;;3.92;1.35;;;6.70;99.90;;;;;;5021362;28;20398;-51
2021/11/21 06:27:28;;;;;;;3.58;1.20;;;6.70;99.90;;;;;;5021113;28;20188;-51
2021/11/21 06:29:54;;;;;;;2.88;1.00;;;6.70;99.90;;;;;;5020387;28;20152;-53
2021/11/21 06:32:21;;;;;;;2.17;1.00;;;6.70;99.90;;;;;;5021944;28;20609;-48
2021/11/21 06:34:48;;;;;;;3.35;1.20;;;6.70;99.90;;;;;;5021321;28;20072;-52
2021/11/21 06:37:15;;;;;;;4.00;1.02;;;6.60;99.90;;;;;;5020119;28;20084;-52
2021/11/21 06:39:41;;;;;;;3.40;1.02;;;6.60;99.90;;;;;;5021765;28;20120;-50
2021/11/21 06:42:10;;;;;;;2.88;1.30;;;6.60;99.90;;;;;;5022096;28;20100;-53
2021/11/21 06:44:37;;;;;;;4.05;1.02;;;6.60;99.90;;;;;;5021061;28;20545;-51
2021/11/21 06:47:04;;;;;;;2.83;1.08;;;6.50;99.90;;;;;;5024854;28;20123;-52
2021/11/21 06:49:30;;;;;;;2.60;0.82;;;6.40;99.90;;;;;;5024695;28;20599;-51
2021/11/21 06:51:57;;;;;;;3.13;1.20;;;6.40;99.90;;;;;;5024861;28;20060;-52
2021/11/21 06:54:25;;;;;;;2.53;0.98;;;6.40;99.90;;;;;;5024394;28;20691;-54
2021/11/21 06:56:51;;;;;;;2.75;1.05;;;6.30;99.90;;;;;;5024204;28;20497;-51
2021/11/21 06:59:18;;;;;;;3.88;1.20;;;6.30;99.90;;;;;;5023538;28;20390;-49
2021/11/21 07:01:45;;;;;;;3.60;1.08;;;6.30;99.90;;;;;;5022470;28;20759;-53
2021/11/21 07:04:12;;;;;;;3.78;1.15;;;6.30;99.90;;;;;;5025379;28;20136;-52
2021/11/21 07:06:43;;;;;;;3.63;1.08;;;6.30;99.90;;;;;;5025710;28;20053;-52
2021/11/21 07:09:11;;;;;;;2.95;1.15;;;6.30;99.90;;;;;;5028180;28;20064;-51
2021/11/21 07:11:38;;;;;;;2.63;1.02;;;6.30;99.90;;;;;;5028003;28;20045;-49
2021/11/21 07:14:06;;;;;;;2.17;1.08;;;6.30;99.90;;;;;;5028219;28;20113;-51
2021/11/21 07:16:33;;;;;;;2.67;0.75;;;6.30;99.90;;;;;;5024484;28;20089;-51
2021/11/21 07:19:00;;;;;;;4.47;1.30;;;6.20;99.90;;;;;;5025134;28;20111;-52
2021/11/21 07:21:27;;;;;;;2.72;0.95;;;6.20;99.90;;;;;;5025187;28;20677;-53
2021/11/21 07:23:54;;;;;;;3.53;1.23;;;6.20;99.90;;;;;;5024915;28;20053;-51
2021/11/21 07:26:20;;;;;;;3.53;1.20;;;6.20;99.90;;;;;;5024932;28;20095;-53
2021/11/21 07:28:47;;;;;;;4.50;1.13;;;6.20;99.90;;;;;;5026952;28;20200;-52
2021/11/21 07:31:14;;;;;;;3.42;0.80;;;6.20;99.90;;;;;;5024501;28;20136;-48
2021/11/21 07:33:41;;;;;;;3.33;0.90;;;6.20;99.90;;;;;;5024642;28;20107;-52
2021/11/21 07:36:08;;;;;;;2.47;0.90;;;6.20;99.90;;;;;;5021596;28;20469;-54
2021/11/21 07:38:35;;;;;;;2.42;1.02;;;6.20;99.90;;;;;;5024252;28;20065;-51
2021/11/21 07:41:02;;;;;;;4.05;1.10;;;6.10;99.90;;;;;;5020226;28;20781;-51
2021/11/21 07:43:30;;;;;;;3.05;0.80;;;6.10;99.90;;;;;;5021495;28;20133;-53
2021/11/21 07:45:58;;;;;;;1.67;0.90;;;6.10;99.90;;;;;;5020266;28;20330;-53
2021/11/21 07:48:25;;;;;;;1.63;0.70;;;6.10;99.90;;;;;;5020811;28;20049;-52
2021/11/21 07:50:52;;;;;;;3.75;1.10;;;6.00;99.90;;;;;;5021079;28;20083;-53
2021/11/21 07:53:19;;;;;;;2.65;1.00;;;6.00;99.90;;;;;;5020786;28;20104;-53
2021/11/21 07:55:47;;;;;;;3.70;1.17;;;6.00;99.90;;;;;;5021257;28;20084;-51
2021/11/21 07:58:14;;;;;;;2.78;0.77;;;6.00;99.90;;;;;;5020522;28;20049;-54
2021/11/21 08:00:41;;;;;;;2.47;0.98;;;6.00;99.90;;;;;;5016357;28;20100;-52
2021/11/21 08:03:07;;;;;;;2.15;0.77;;;6.00;99.90;;;;;;5013942;28;20064;-53
2021/11/21 08:05:34;;;;;;;3.03;1.10;;;6.00;99.90;;;;;;5021792;28;20333;-52
2021/11/21 08:08:01;;;;;;;5.63;1.60;;;6.00;99.90;;;;;;5021970;28;20728;-53
2021/11/21 08:10:28;;;;;;;4.28;1.10;;;6.00;99.90;;;;;;5020192;28;20132;-50
2021/11/21 08:12:55;;;;;;;2.45;1.10;;;6.00;99.90;;;;;;5019584;28;20053;-49
2021/11/21 08:15:21;;;;;;;3.15;1.10;;;6.00;99.90;;;;;;5020369;28;20049;-53
2021/11/21 08:17:48;;;;;;;2.67;1.00;;;6.00;99.90;;;;;;5021310;28;20089;-52
2021/11/21 08:20:15;;;;;;;1.85;0.93;;;6.00;99.90;;;;;;5020080;28;20056;-50
2021/11/21 08:22:42;;;;;;;3.55;1.20;;;6.00;99.90;;;;;;5021358;28;20128;-50
2021/11/21 08:25:09;;;;;;;2.83;1.05;;;6.10;99.90;;;;;;5020587;28;20093;-52
2021/11/21 08:27:37;;;;;;;2.28;1.00;;;6.00;99.90;;;;;;5020336;28;20107;-49
2021/11/21 08:30:04;;;;;;;2.47;0.90;;;6.00;99.90;;;;;;5018715;28;20140;-51
2021/11/21 08:32:31;;;;;;;2.13;0.80;;;6.10;99.90;;;;;;5018195;28;20534;-51
2021/11/21 08:34:58;;;;;;;2.70;0.88;;;6.10;99.90;;;;;;5019326;28;20133;-57
2021/11/21 08:37:24;;;;;;;2.50;1.17;;;6.10;99.80;;;;;;5019436;28;20057;-50
2021/11/21 08:39:51;;;;;;;2.75;1.15;;;6.10;99.90;;;;;;5018753;28;20088;-51
2021/11/21 08:42:18;;;;;;;3.58;1.10;;;6.10;99.80;;;;;;5018909;28;20122;-53
2021/11/21 08:44:45;;;;;;;2.50;1.00;;;6.10;99.60;;;;;;5016465;28;20617;-54
2021/11/21 08:47:11;;;;;;;2.65;1.20;;;6.10;99.90;;;;;;5019397;28;20081;-53
2021/11/21 08:49:38;;;;;;;3.10;1.05;;;6.10;99.70;;;;;;5019585;28;20132;-52
2021/11/21 08:52:06;;;;;;;2.38;0.95;;;6.20;99.90;;;;;;5020097;28;20077;-52
2021/11/21 08:54:32;;;;;;;1.98;0.70;;;6.20;99.90;;;;;;5019383;28;20586;-49
2021/11/21 08:56:59;;;;;;;2.30;0.95;;;6.20;99.80;;;;;;5018819;28;20531;-51
2021/11/21 08:59:26;;;;;;;2.95;0.93;;;6.20;99.40;;;;;;5018431;28;20065;-53
2021/11/21 09:01:53;;;;;;;4.15;2.50;;;6.20;99.40;;;;;;5018451;28;20103;-52
2021/11/21 09:04:20;;;;;;;4.03;1.02;;;6.20;99.40;;;;;;5018970;28;20037;-49
2021/11/21 09:06:47;;;;;;;2.33;1.00;;;6.20;99.60;;;;;;5019583;28;20348;-53
2021/11/21 09:09:14;;;;;;;4.00;0.82;;;6.20;99.30;;;;;;5018610;28;20512;-53
2021/11/21 09:11:42;;;;;;;1.20;1.10;;;6.30;99.00;;;;;;5018769;28;20085;-53
2021/11/21 09:14:09;;;;;;;4.40;0.80;;;6.30;99.10;;;;;;5019480;28;20131;-51
2021/11/21 09:16:36;;;;;;;1.98;0.80;;;6.40;99.10;;;;;;5018407;28;20160;-52
2021/11/21 09:19:03;;;;;;;2.22;0.93;;;6.40;99.10;;;;;;5019684;28;20548;-53
2021/11/21 09:21:30;;;;;;;3.17;0.98;;;6.50;98.90;;;;;;5018710;28;20416;-54
2021/11/21 09:23:56;;;;;;;3.50;1.30;;;6.50;98.60;;;;;;5018452;28;20463;-53
2021/11/21 09:26:25;;;;;;;3.70;0.98;;;6.60;98.60;;;;;;5017067;28;20081;-55
2021/11/21 09:28:52;;;;;;;2.90;1.02;;;6.60;98.50;;;;;;5018378;28;20125;-52
2021/11/21 09:31:19;;;;;;;4.95;1.40;;;6.60;98.50;;;;;;5017424;28;20195;-53
2021/11/21 09:33:46;;;;;;;3.60;1.30;;;6.50;98.70;;;;;;5017888;28;20057;-55
2021/11/21 09:36:12;;;;;;;2.13;1.05;;;6.60;98.60;;;;;;5012536;28;20162;-55
2021/11/21 09:38:39;;;;;;;3.72;1.13;;;6.50;98.60;;;;;;5016623;28;20132;-54
2021/11/21 09:41:06;;;;;;;1.90;0.95;;;6.60;98.90;;;;;;5014764;28;20080;-53
2021/11/21 09:43:33;;;;;;;3.85;1.38;;;6.60;98.70;;;;;;5017471;28;20501;-52
2021/11/21 09:46:00;;;;;;;6.57;1.80;;;6.70;98.50;;;;;;5016054;28;20059;-52
2021/11/21 09:48:31;;;;;;;3.53;1.33;;;6.60;98.40;;;;;;5021059;28;20077;-53
2021/11/21 09:50:57;;;;;;;4.50;1.63;;;6.70;98.80;;;;;;5020720;28;20108;-49
2021/11/21 09:53:24;;;;;;;3.60;1.45;;;6.70;98.80;;;;;;5020451;28;20140;-50
2021/11/21 09:55:51;;;;;;;3.08;1.50;;;6.80;98.50;;;;;;5023847;28;20087;-47
2021/11/21 09:58:18;;;;;;;3.00;1.20;;;6.80;98.40;;;;;;5023154;28;20128;-52
2021/11/21 10:00:44;;;;;;;3.75;1.52;;;6.80;98.40;;;;;;5022526;28;20076;-53
2021/11/21 10:03:12;;;;;;;4.75;1.30;;;6.90;98.20;;;;;;5023274;28;20056;-50
2021/11/21 10:05:43;;;;;;;4.78;1.15;;;7.00;98.10;;;;;;5022484;28;20643;-49
2021/11/21 10:08:11;;;;;;;3.20;1.17;;;7.10;98.20;;;;;;5018779;28;20177;-49
2021/11/21 10:10:49;;;;;;;3.90;1.02;;;7.20;98.00;;;;;;5017604;28;20600;-51
2021/11/21 10:13:31;;;;;;;2.80;0.77;;;7.40;98.00;;;;;;5017064;28;20087;-50
2021/11/21 10:16:14;;;;;;;1.38;0.82;;;7.50;97.60;;;;;;5016785;28;20140;-50
2021/11/21 10:18:47;;;;;;;7.40;1.55;;;7.60;97.60;;;;;;5018591;28;20204;-53
2021/11/21 10:21:15;;;;;;;2.65;0.82;;;7.50;97.30;;;;;;5018007;28;20140;-50
2021/11/21 10:23:43;;;;;;;3.00;0.90;;;7.60;97.30;;;;;;5015121;28;20528;-52
2021/11/21 10:26:23;;;;;;;2.88;1.25;;;7.70;97.40;;;;;;5013903;28;20080;-52
2021/11/21 10:28:50;;;;;;;3.30;0.90;;;7.70;97.30;;;;;;5013396;28;20461;-49
2021/11/21 10:31:22;;;;;;;1.92;1.00;;;7.80;97.20;;;;;;5013756;28;20045;-53
2021/11/21 10:33:57;;;;;;;3.03;1.23;;;7.80;97.00;;;;;;5017636;28;20055;-50
2021/11/21 10:36:29;;;;;;;3.17;1.10;;;7.70;97.30;;;;;;5016201;28;20089;-52
2021/11/21 10:39:04;;;;;;;3.30;1.08;;;7.70;97.10;;;;;;5015870;28;20552;-52
2021/11/21 10:41:33;;;;;;;3.35;1.35;;;7.70;97.30;;;;;;5015966;28;20607;-51
2021/11/21 10:44:20;;;;;;;3.55;1.00;;;7.70;97.70;;;;;;5018378;28;20084;-50
2021/11/21 10:46:48;;;;;;;2.35;0.77;;;7.80;97.60;;;;;;5017723;28;20053;-49
2021/11/21 10:49:18;;;;;;;2.80;1.02;;;7.90;97.50;;;;;;5017384;28;20148;-51
2021/11/21 10:51:45;;;;;;;1.88;0.93;;;8.00;97.20;;;;;;5017029;28;20107;-53
2021/11/21 10:54:23;;;;;;;3.17;0.98;;;8.10;97.20;;;;;;5016693;28;20184;-50
2021/11/21 10:56:52;;;;;;;3.33;1.00;;;8.10;97.10;;;;;;5014613;28;20145;-52
2021/11/21 10:59:38;;;;;;;2.92;1.00;;;8.10;97.10;;;;;;5017188;28;20136;-50
2021/11/21 11:02:20;;;;;;;7.28;1.63;;;8.00;97.50;;;;;;5017495;28;20085;-53
2021/11/21 11:04:58;;;;;;;2.60;0.80;;;8.00;97.50;;;;;;5017275;28;20092;-49
2021/11/21 11:07:26;;;;;;;3.25;0.80;;;8.10;97.40;;;;;;5017994;28;20504;-51
2021/11/21 11:09:53;;;;;;;2.28;1.10;;;8.10;97.50;;;;;;5016411;28;20518;-49
2021/11/21 11:12:21;;;;;;;3.13;1.30;;;8.10;97.40;;;;;;5016269;28;20073;-53
2021/11/21 11:14:48;;;;;;;3.05;1.50;;;8.00;97.20;;;;;;5015270;28;20540;-49
2021/11/21 11:17:15;;;;;;;4.03;1.50;;;8.00;97.50;;;;;;5017389;28;20061;-52
2021/11/21 11:19:44;;;;;;;4.20;1.27;;;8.10;97.60;;;;;;5016829;28;20069;-53
2021/11/21 11:22:12;;;;;;;5.10;1.65;;;8.10;97.50;;;;;;5016549;28;20132;-49
2021/11/21 11:24:43;;;;;;;2.38;1.10;;;8.10;97.50;;;;;;5018134;28;20115;-54
2021/11/21 11:27:36;;;;;;;2.67;1.08;;;8.10;97.90;;;;;;5016268;28;20168;-48
2021/11/21 11:30:04;;;;;;;2.33;1.00;;;8.20;97.60;;;;;;5015299;28;20523;-52
2021/11/21 11:32:35;;;;;;;6.22;1.73;;;8.30;97.40;;;;;;5017579;28;20107;-50
2021/11/21 11:35:06;;;;;;;1.85;0.90;;;8.30;97.20;;;;;;5017464;28;20057;-53
2021/11/21 11:37:36;;;;;;;2.72;1.10;;;8.40;97.70;;;;;;5015716;28;20761;-49
2021/11/21 11:40:04;;;;;;;5.75;1.23;;;8.30;96.90;;;;;;5013639;28;20445;-53
2021/11/21 11:42:38;;;;;;;3.00;1.60;;;8.30;97.00;;;;;;5014418;28;20108;-53
2021/11/21 11:45:07;;;;;;;3.00;1.40;;;8.30;97.00;;;;;;5016936;28;20080;-51
2021/11/21 11:47:35;;;;;;;3.28;1.10;;;8.50;96.70;;;;;;5013807;28;20845;-54
2021/11/21 11:50:03;;;;;;;2.10;0.80;;;8.60;96.60;;;;;;5018364;28;20164;-53
2021/11/21 11:52:55;;;;;;;2.65;1.00;;;8.70;96.50;;;;;;5020926;28;20148;-52
2021/11/21 11:55:24;;;;;;;4.35;0.98;;;8.80;96.40;;;;;;5020936;28;20493;-53
2021/11/21 11:57:52;;;;;;;1.30;0.65;;;8.80;96.30;;;;;;5020474;28;20136;-50
2021/11/21 12:00:37;;;;;;;1.65;0.75;;;8.80;96.20;;;;;;5019439;28;20165;-51
2021/11/21 12:03:36;;;;;;;3.83;1.20;;;8.80;96.10;;;;;;5019608;28;20512;-48
2021/11/21 12:06:04;;;;;;;3.58;1.20;;;8.80;96.00;;;;;;5021028;28;20465;-49
2021/11/21 12:08:31;;;;;;;1.58;0.80;;;8.70;96.10;;;;;;5020840;28;20128;-50
2021/11/21 12:10:58;;;;;;;3.42;1.08;;;8.80;96.00;;;;;;5019950;28;20517;-49
2021/11/21 12:13:29;;;;;;;4.85;1.30;;;8.70;95.80;;;;;;5018842;28;20053;-49
2021/11/21 12:16:01;;;;;;;4.22;1.27;;;8.80;95.90;;;;;;5020180;28;20560;-50
2021/11/21 12:18:55;;;;;;;2.65;1.40;;;8.80;95.70;;;;;;5020485;28;20251;-50
2021/11/21 12:21:42;;;;;;;3.13;1.02;;;8.80;95.90;;;;;;5015504;28;20500;-52
2021/11/21 12:24:22;;;;;;;5.28;1.20;;;9.00;96.40;;;;;;5020499;28;20054;-49
2021/11/21 12:26:49;;;;;;;4.30;1.77;;;9.10;95.10;;;;;;5019335;28;20473;-50
2021/11/21 12:29:36;;;;;;;4.45;1.27;;;9.10;94.80;;;;;;5018542;28;20053;-49
2021/11/21 12:32:19;;;;;;;4.28;1.40;;;9.30;94.70;;;;;;5020134;28;20069;-51
2021/11/21 12:34:48;;;;;;;3.60;1.35;;;9.40;94.60;;;;;;5016733;28;20140;-52
2021/11/21 12:37:20;;;;;;;2.45;1.02;;;9.40;94.70;;;;;;5019978;28;20568;-49
2021/11/21 12:39:50;;;;;;;3.17;1.38;;;9.40;94.20;;;;;;5020523;28;20148;-53
2021/11/21 12:42:18;;;;;;;4.55;2.08;;;9.60;94.40;;;;;;5020601;28;20504;-54
2021/11/21 12:44:45;;;;;;;4.13;1.40;;;9.60;93.60;;;;;;5019346;28;20179;-51
2021/11/21 12:47:12;;;;;;;3.90;1.30;;;9.50;94.00;;;;;;5021199;28;20161;-52
2021/11/21 12:49:40;;;;;;;4.68;1.60;;;9.50;94.20;;;;;;5020584;28;20057;-53
2021/11/21 12:52:07;;;;;;;4.90;1.80;;;9.40;94.20;;;;;;5020936;28;20516;-49
2021/11/21 12:54:34;;;;;;;6.03;2.03;;;9.20;94.20;;;;;;5020045;28;20097;-53
2021/11/21 12:57:01;;;;;;;4.57;1.70;;;9.10;94.40;;;;;;5019787;28;20073;-54
2021/11/21 12:59:54;;;;;;;5.78;2.33;;;9.00;94.50;;;;;;5017226;28;20715;-49
2021/11/21 13:02:27;;;;;;;5.40;2.20;;;9.10;94.80;;;;;;5010884;28;20076;-52
2021/11/21 13:05:02;;;;;;;7.05;2.70;;;9.20;94.90;;;;;;5019930;28;20041;-53